Time;durP1;ratioP1;P1;durP2;ratioP2;P2;SDS_P1;SDS_P2;PMS_P1;PMS_P2;Temp;Humidity;BMP_temperature;BMP_pressure;BME280_temperature;BME280_humidity;BME280_pressure;Samples;Min_cycle;Max_cycle;Signal;HPM_P1;HPM_P2
2023/04/17 00:02:09;;;;;;;33.58;24.27;;;8.30;99.90;;;;;;5048166;28;20082;-84
2023/04/17 00:04:36;;;;;;;35.83;24.92;;;8.20;99.90;;;;;;5084309;28;20116;-84
2023/04/17 00:07:04;;;;;;;28.83;23.65;;;8.30;99.90;;;;;;5049834;28;21686;-85
2023/04/17 00:09:30;;;;;;;34.17;23.38;;;8.20;99.90;;;;;;5049101;28;20090;-84
2023/04/17 00:11:56;;;;;;;31.85;23.17;;;8.20;99.90;;;;;;5085806;28;20492;-85
2023/04/17 00:14:21;;;;;;;33.38;24.27;;;8.20;99.90;;;;;;5078225;28;20048;-84
2023/04/17 00:16:47;;;;;;;31.05;23.92;;;8.20;99.90;;;;;;5089136;28;20052;-85
2023/04/17 00:19:13;;;;;;;33.65;23.88;;;8.20;99.90;;;;;;5068831;28;20040;-84
2023/04/17 00:21:38;;;;;;;29.25;24.17;;;8.20;99.90;;;;;;5065494;28;20037;-85
2023/04/17 00:24:04;;;;;;;33.17;23.90;;;8.20;99.90;;;;;;5071720;28;20029;-85
2023/04/17 00:26:31;;;;;;;33.83;24.80;;;8.20;99.90;;;;;;5063312;28;20514;-84
2023/04/17 00:28:57;;;;;;;33.97;24.88;;;8.10;99.90;;;;;;5054521;28;20129;-84
2023/04/17 00:31:22;;;;;;;30.95;25.20;;;8.10;99.90;;;;;;5045457;28;20132;-84
2023/04/17 00:33:48;;;;;;;34.38;25.92;;;8.10;99.90;;;;;;5092595;28;20103;-84
2023/04/17 00:36:14;;;;;;;34.95;25.65;;;8.10;99.90;;;;;;5051240;28;20048;-85
2023/04/17 00:38:40;;;;;;;36.60;25.70;;;8.20;99.90;;;;;;5050498;28;20039;-84
2023/04/17 00:41:05;;;;;;;36.30;25.33;;;8.20;99.90;;;;;;5051132;28;20033;-84
2023/04/17 00:43:31;;;;;;;36.97;26.77;;;8.20;99.90;;;;;;5048996;28;20041;-85
2023/04/17 00:45:57;;;;;;;37.10;26.33;;;8.10;99.90;;;;;;5054485;28;20513;-84
2023/04/17 00:48:23;;;;;;;34.83;25.58;;;8.10;99.90;;;;;;5051263;28;20071;-84
2023/04/17 00:50:49;;;;;;;35.10;25.65;;;8.20;99.90;;;;;;5043539;28;20063;-84
2023/04/17 00:53:16;;;;;;;36.88;27.88;;;8.10;99.90;;;;;;5050087;28;20033;-85
2023/04/17 00:55:43;;;;;;;38.28;27.13;;;8.20;99.90;;;;;;5078299;28;20094;-85
2023/04/17 00:58:10;;;;;;;38.08;27.30;;;8.10;99.90;;;;;;5042422;28;20435;-84
2023/04/17 01:00:36;;;;;;;34.45;26.45;;;8.20;99.90;;;;;;5043863;28;20095;-85
2023/04/17 01:03:02;;;;;;;37.67;27.38;;;8.20;99.90;;;;;;5080333;28;20124;-84
2023/04/17 01:05:28;;;;;;;42.42;26.95;;;8.20;99.90;;;;;;5048365;28;20429;-85
2023/04/17 01:07:55;;;;;;;40.25;28.23;;;8.20;99.90;;;;;;5050439;28;20088;-84
2023/04/17 01:10:21;;;;;;;38.20;28.42;;;8.20;99.90;;;;;;5047509;28;20045;-84
2023/04/17 01:13:09;;;;;;;38.38;28.17;;;8.20;99.90;;;;;;5083115;28;20056;-84
2023/04/17 01:15:35;;;;;;;41.70;28.95;;;8.20;99.90;;;;;;5045895;28;20092;-85
2023/04/17 01:18:01;;;;;;;42.33;27.70;;;8.20;99.90;;;;;;5051128;28;20075;-85
2023/04/17 01:20:30;;;;;;;44.85;30.08;;;8.10;99.90;;;;;;5046373;28;20094;-84
2023/04/17 01:22:57;;;;;;;42.28;30.25;;;9.10;99.90;;;;;;5050082;28;20044;-84
2023/04/17 01:25:23;;;;;;;40.65;28.35;;;8.20;99.90;;;;;;5048805;28;20048;-84
2023/04/17 01:27:48;;;;;;;45.72;29.98;;;8.20;99.90;;;;;;5053500;28;20036;-84
2023/04/17 01:30:14;;;;;;;41.97;30.02;;;8.20;99.90;;;;;;5048677;28;20598;-85
2023/04/17 01:32:40;;;;;;;41.38;30.65;;;8.20;99.90;;;;;;5055212;28;20445;-84
2023/04/17 01:35:06;;;;;;;48.42;31.52;;;8.20;99.90;;;;;;5051755;28;20054;-84
2023/04/17 01:37:31;;;;;;;44.92;30.92;;;8.20;99.90;;;;;;5052115;28;20661;-84
2023/04/17 01:39:57;;;;;;;47.30;31.77;;;8.20;99.90;;;;;;5059245;28;20109;-84
2023/04/17 01:42:23;;;;;;;46.80;31.67;;;8.20;99.90;;;;;;5037269;28;20083;-84
2023/04/17 01:44:49;;;;;;;43.30;32.17;;;8.20;99.90;;;;;;5052476;28;20037;-85
2023/04/17 01:47:15;;;;;;;48.13;31.98;;;8.20;99.90;;;;;;5051871;28;20124;-85
2023/04/17 01:49:40;;;;;;;47.22;31.80;;;8.80;99.90;;;;;;5047299;28;20063;-85
2023/04/17 01:52:06;;;;;;;43.92;31.75;;;8.30;99.90;;;;;;5046423;28;20064;-84
2023/04/17 01:54:32;;;;;;;47.65;32.00;;;8.30;99.90;;;;;;5084290;28;20032;-84
2023/04/17 01:56:57;;;;;;;46.72;33.53;;;8.30;99.90;;;;;;5085906;28;20087;-85
2023/04/17 01:59:23;;;;;;;44.10;32.22;;;8.30;99.90;;;;;;5053811;28;20056;-84
2023/04/17 02:01:50;;;;;;;48.88;33.35;;;8.30;99.90;;;;;;5048046;28;20612;-84
2023/04/17 02:04:15;;;;;;;47.60;32.55;;;8.50;99.90;;;;;;5056470;28;20387;-84
2023/04/17 02:06:41;;;;;;;45.70;31.85;;;8.30;99.90;;;;;;5053613;28;20037;-84
2023/04/17 02:09:07;;;;;;;50.63;33.38;;;8.30;99.90;;;;;;5055266;28;20048;-83
2023/04/17 02:11:32;;;;;;;45.13;32.20;;;8.30;99.90;;;;;;5054795;28;20422;-84
2023/04/17 02:13:58;;;;;;;46.85;33.13;;;8.30;99.90;;;;;;5052762;28;20156;-84
2023/04/17 02:16:23;;;;;;;45.88;32.60;;;8.30;99.90;;;;;;5052360;28;20171;-84
2023/04/17 02:18:49;;;;;;;48.80;33.97;;;8.40;99.90;;;;;;5052141;28;20041;-84
2023/04/17 02:21:15;;;;;;;44.03;30.90;;;8.30;99.90;;;;;;5052294;28;20036;-84
2023/04/17 02:23:41;;;;;;;47.45;33.03;;;8.30;99.90;;;;;;5059124;28;20047;-84
2023/04/17 02:26:06;;;;;;;47.67;33.35;;;8.40;99.90;;;;;;5054166;28;20052;-84
2023/04/17 02:28:32;;;;;;;49.25;34.22;;;8.40;99.90;;;;;;5053470;28;20041;-84
2023/04/17 02:30:58;;;;;;;47.40;33.35;;;8.40;99.90;;;;;;5053075;28;20398;-84
2023/04/17 02:33:23;;;;;;;48.25;33.20;;;8.40;99.90;;;;;;5050619;28;20037;-84
2023/04/17 02:35:49;;;;;;;46.25;31.60;;;8.40;99.90;;;;;;5087520;28;20479;-83
2023/04/17 02:38:15;;;;;;;49.63;33.88;;;8.40;99.90;;;;;;5062118;28;20037;-84
2023/04/17 02:40:40;;;;;;;46.42;34.35;;;8.40;99.90;;;;;;5051229;28;20038;-85
2023/04/17 02:43:06;;;;;;;45.67;32.58;;;8.40;99.90;;;;;;5050760;28;20029;-83
2023/04/17 02:45:32;;;;;;;49.90;31.77;;;8.40;99.90;;;;;;5084116;28;20029;-84
2023/04/17 02:47:57;;;;;;;49.33;33.45;;;8.40;99.90;;;;;;5083488;28;20049;-84
2023/04/17 02:50:23;;;;;;;47.05;32.55;;;8.40;99.90;;;;;;5053958;28;20044;-84
2023/04/17 02:52:48;;;;;;;45.00;31.75;;;8.40;99.90;;;;;;5056966;28;20491;-84
2023/04/17 02:55:14;;;;;;;50.33;33.85;;;8.40;99.90;;;;;;5062863;28;20436;-84
2023/04/17 02:57:39;;;;;;;47.10;34.08;;;8.40;99.90;;;;;;5093240;28;20040;-85
2023/04/17 03:00:12;;;;;;;48.03;33.78;;;8.40;99.90;;;;;;5038659;28;20085;-85
2023/04/17 03:02:38;;;;;;;50.65;33.72;;;8.40;99.90;;;;;;5084856;28;20505;-84
2023/04/17 03:05:04;;;;;;;52.95;34.97;;;8.40;99.90;;;;;;5081453;28;20083;-84
2023/04/17 03:07:30;;;;;;;41.72;32.00;;;8.30;99.90;;;;;;5046613;28;20041;-84
2023/04/17 03:09:56;;;;;;;45.97;33.13;;;8.30;99.90;;;;;;5051632;28;20545;-83
2023/04/17 03:12:22;;;;;;;43.28;32.60;;;8.30;99.90;;;;;;5049119;28;20052;-83
2023/04/17 03:14:48;;;;;;;49.10;33.58;;;8.40;99.90;;;;;;5047053;28;20072;-84
2023/04/17 03:17:14;;;;;;;55.53;34.40;;;8.30;99.90;;;;;;5051966;28;20118;-84
2023/04/17 03:19:40;;;;;;;54.22;34.65;;;8.30;99.90;;;;;;5049097;28;20077;-84
2023/04/17 03:22:05;;;;;;;52.95;33.83;;;8.30;99.90;;;;;;5050338;28;20508;-84
2023/04/17 03:24:31;;;;;;;52.08;33.45;;;8.30;99.90;;;;;;5048447;28;20380;-85
2023/04/17 03:26:58;;;;;;;52.70;34.22;;;8.20;99.90;;;;;;5054569;28;20402;-84
2023/04/17 03:29:23;;;;;;;55.22;34.67;;;8.30;99.90;;;;;;5048786;28;20048;-84
2023/04/17 03:31:49;;;;;;;46.47;34.65;;;8.30;99.90;;;;;;5048825;28;20510;-84
2023/04/17 03:34:16;;;;;;;55.20;34.65;;;8.30;99.90;;;;;;5056269;28;20040;-84
2023/04/17 03:36:41;;;;;;;45.55;33.08;;;8.20;99.90;;;;;;5081383;28;20040;-84
2023/04/17 03:39:07;;;;;;;51.88;33.40;;;8.20;99.90;;;;;;5050496;28;20152;-84
2023/04/17 03:41:32;;;;;;;47.30;32.08;;;8.20;99.90;;;;;;5049268;28;20079;-84
2023/04/17 03:43:58;;;;;;;48.67;34.03;;;8.20;99.90;;;;;;5067048;28;20052;-84
2023/04/17 03:46:24;;;;;;;50.92;33.65;;;8.20;99.90;;;;;;5054478;28;20033;-84
2023/04/17 03:48:49;;;;;;;53.15;34.63;;;8.20;99.90;;;;;;5045983;28;20073;-84
2023/04/17 03:51:15;;;;;;;44.25;31.98;;;8.20;99.90;;;;;;5083021;28;20131;-84
2023/04/17 03:53:41;;;;;;;45.20;31.13;;;8.10;99.90;;;;;;5060267;28;20037;-84
2023/04/17 03:56:07;;;;;;;48.10;33.08;;;8.10;99.90;;;;;;5055666;28;20114;-84
2023/04/17 03:58:32;;;;;;;42.30;30.70;;;8.10;99.90;;;;;;5045750;28;20045;-84
2023/04/17 04:01:00;;;;;;;54.90;33.30;;;8.10;99.90;;;;;;5083188;28;20044;-84
2023/04/17 04:03:29;;;;;;;49.38;32.50;;;8.10;99.90;;;;;;5050509;28;20037;-84
2023/04/17 04:05:55;;;;;;;51.40;32.72;;;8.10;99.90;;;;;;5053096;28;20132;-83
2023/04/17 04:08:21;;;;;;;47.97;33.05;;;8.10;99.90;;;;;;5055471;28;20115;-84
2023/04/17 04:10:46;;;;;;;47.60;32.33;;;8.10;99.90;;;;;;5067491;28;20037;-84
2023/04/17 04:13:12;;;;;;;44.20;31.58;;;8.00;99.90;;;;;;5045314;28;20441;-84
2023/04/17 04:15:38;;;;;;;47.33;31.88;;;8.00;99.90;;;;;;5047212;28;20045;-84
2023/04/17 04:18:04;;;;;;;55.00;32.83;;;8.00;99.90;;;;;;5053911;28;20506;-84
2023/04/17 04:20:29;;;;;;;45.38;31.70;;;8.10;99.90;;;;;;5086136;28;20041;-83
2023/04/17 04:22:58;;;;;;;43.92;30.55;;;8.00;99.90;;;;;;5044855;28;20048;-83
2023/04/17 04:25:24;;;;;;;45.88;30.42;;;8.00;99.90;;;;;;5044104;28;20033;-83
2023/04/17 04:27:50;;;;;;;53.08;29.80;;;8.00;99.90;;;;;;5051625;28;20433;-83
2023/04/17 04:30:49;;;;;;;57.17;30.90;;;8.00;99.90;;;;;;5048995;28;20045;-81
2023/04/17 04:33:29;;;;;;;48.83;30.20;;;8.00;99.90;;;;;;5034751;28;20132;-82
2023/04/17 04:35:59;;;;;;;56.85;30.00;;;7.90;99.90;;;;;;5044597;28;20100;-81
2023/04/17 04:38:29;;;;;;;44.70;31.52;;;7.80;99.90;;;;;;5040293;28;20557;-82
2023/04/17 04:41:04;;;;;;;65.35;31.85;;;7.80;99.90;;;;;;5047107;28;20614;-81
2023/04/17 04:43:32;;;;;;;58.58;31.02;;;7.80;99.90;;;;;;5049635;28;20045;-80
2023/04/17 04:45:58;;;;;;;56.35;31.33;;;7.80;99.90;;;;;;5082882;28;20046;-82
2023/04/17 04:48:23;;;;;;;79.95;31.67;;;7.80;99.90;;;;;;5082155;28;20043;-82
2023/04/17 04:50:49;;;;;;;70.75;32.30;;;7.80;99.90;;;;;;5081515;28;20037;-80
2023/04/17 04:53:14;;;;;;;69.30;30.33;;;7.80;99.90;;;;;;5045706;28;20029;-81
2023/04/17 04:55:40;;;;;;;73.78;31.40;;;7.70;99.90;;;;;;5078641;28;20032;-80
2023/04/17 04:58:05;;;;;;;98.50;35.78;;;7.70;99.90;;;;;;5052753;28;20041;-80
2023/04/17 05:00:31;;;;;;;89.63;32.10;;;7.70;99.90;;;;;;5049825;28;20036;-81
2023/04/17 05:02:56;;;;;;;47.05;30.15;;;7.70;99.90;;;;;;5052809;28;20041;-80
2023/04/17 05:05:22;;;;;;;57.13;30.67;;;7.60;99.90;;;;;;5049386;28;20060;-83
2023/04/17 05:07:47;;;;;;;68.32;31.38;;;7.70;99.90;;;;;;5056199;28;20171;-80
2023/04/17 05:10:13;;;;;;;45.45;29.58;;;7.60;99.90;;;;;;5051450;28;20087;-82
2023/04/17 05:12:40;;;;;;;55.72;29.10;;;7.60;99.90;;;;;;5050475;28;20154;-81
2023/04/17 05:15:06;;;;;;;59.70;28.58;;;7.60;99.90;;;;;;5052771;28;20055;-82
2023/04/17 05:17:31;;;;;;;52.58;28.10;;;7.60;99.90;;;;;;5027879;28;21139;-82
2023/04/17 05:19:57;;;;;;;41.25;26.83;;;7.60;99.90;;;;;;5053014;28;20060;-81
2023/04/17 05:22:22;;;;;;;44.35;26.90;;;7.60;99.90;;;;;;5049395;28;20040;-82
2023/04/17 05:24:48;;;;;;;58.25;27.48;;;7.60;99.90;;;;;;5050020;28;20083;-80
2023/04/17 05:27:13;;;;;;;40.78;28.23;;;7.60;99.90;;;;;;5081085;28;20070;-81
2023/04/17 05:29:39;;;;;;;50.47;27.85;;;7.60;99.90;;;;;;5052038;28;20041;-81
2023/04/17 05:32:04;;;;;;;57.20;29.98;;;7.60;99.90;;;;;;5054129;28;20059;-81
2023/04/17 05:34:30;;;;;;;52.00;28.48;;;7.60;99.90;;;;;;5047135;28;20510;-81
2023/04/17 05:36:56;;;;;;;49.35;28.42;;;7.60;99.90;;;;;;5051166;28;20067;-81
2023/04/17 05:39:21;;;;;;;42.20;27.13;;;7.60;99.90;;;;;;5051045;28;20521;-81
2023/04/17 05:41:47;;;;;;;45.72;29.67;;;7.60;99.90;;;;;;5035170;28;20041;-83
2023/04/17 05:44:12;;;;;;;43.83;27.52;;;7.60;99.90;;;;;;5026580;28;20041;-82
2023/04/17 05:46:38;;;;;;;43.03;28.75;;;7.60;99.90;;;;;;5019770;28;20116;-82
2023/04/17 05:49:04;;;;;;;45.22;27.70;;;7.70;99.90;;;;;;5028903;28;20037;-82
2023/04/17 05:51:29;;;;;;;38.60;27.48;;;7.60;99.90;;;;;;5024885;28;20508;-83
2023/04/17 05:54:02;;;;;;;49.08;28.13;;;7.70;99.90;;;;;;5021170;28;20050;-83
2023/04/17 05:56:27;;;;;;;41.70;27.48;;;7.70;99.90;;;;;;5020988;28;20077;-83
2023/04/17 05:58:56;;;;;;;47.25;28.85;;;7.80;99.90;;;;;;5019888;28;20842;-85
2023/04/17 06:01:21;;;;;;;55.60;29.70;;;7.80;99.90;;;;;;5023647;28;20037;-86
2023/04/17 06:03:47;;;;;;;47.47;28.77;;;7.80;99.90;;;;;;5016437;28;20096;-86
2023/04/17 06:06:13;;;;;;;60.53;30.45;;;7.80;99.90;;;;;;5014279;28;20612;-86
2023/04/17 06:08:39;;;;;;;54.42;30.98;;;8.10;99.90;;;;;;5016727;28;20072;-82
2023/04/17 06:11:05;;;;;;;41.95;30.38;;;7.70;99.90;;;;;;5014629;28;20045;-85
2023/04/17 06:13:31;;;;;;;50.72;30.77;;;7.80;99.90;;;;;;5019155;28;20136;-84
2023/04/17 06:15:57;;;;;;;42.13;28.90;;;7.80;99.90;;;;;;5022357;28;21112;-83
2023/04/17 06:18:23;;;;;;;50.58;31.40;;;7.80;99.90;;;;;;5019603;28;20052;-82
2023/04/17 06:20:48;;;;;;;49.10;29.45;;;7.80;99.90;;;;;;5016894;28;20073;-81
2023/04/17 06:23:14;;;;;;;71.72;32.20;;;7.90;99.90;;;;;;5021909;28;20037;-82
2023/04/17 06:25:39;;;;;;;48.00;29.85;;;7.80;99.90;;;;;;5021251;28;20041;-85
2023/04/17 06:28:05;;;;;;;66.38;32.72;;;7.90;99.90;;;;;;5008226;28;20075;-84
2023/04/17 06:30:31;;;;;;;59.35;32.58;;;7.90;99.90;;;;;;5019851;28;20065;-81
2023/04/17 06:32:56;;;;;;;54.38;31.98;;;7.90;99.90;;;;;;5053292;28;20483;-84
2023/04/17 06:35:22;;;;;;;75.30;35.00;;;7.90;99.90;;;;;;5019762;28;20083;-84
2023/04/17 06:37:47;;;;;;;74.97;37.13;;;7.90;99.90;;;;;;5018714;28;20057;-84
2023/04/17 06:40:13;;;;;;;54.72;33.38;;;8.00;99.90;;;;;;5016852;28;22066;-82
2023/04/17 06:42:39;;;;;;;51.72;33.72;;;8.10;99.90;;;;;;5012510;28;20127;-84
2023/04/17 06:45:05;;;;;;;45.15;30.98;;;8.10;99.90;;;;;;5016151;28;20044;-82
2023/04/17 06:47:31;;;;;;;52.05;34.05;;;8.20;99.90;;;;;;5010622;28;20069;-84
2023/04/17 06:49:58;;;;;;;52.95;34.58;;;8.20;99.90;;;;;;5017376;28;20602;-85
2023/04/17 06:52:25;;;;;;;54.80;34.05;;;8.20;99.90;;;;;;5019453;28;20046;-81
2023/04/17 06:54:54;;;;;;;55.63;33.95;;;8.30;99.90;;;;;;5013587;28;20045;-81
2023/04/17 06:57:20;;;;;;;54.30;33.55;;;8.40;99.90;;;;;;5011783;28;20041;-83
2023/04/17 06:59:46;;;;;;;50.58;33.22;;;8.40;99.90;;;;;;5016261;28;20050;-82
2023/04/17 07:02:12;;;;;;;53.17;33.85;;;8.50;99.90;;;;;;5017742;28;20110;-82
2023/04/17 07:04:38;;;;;;;48.15;33.53;;;8.60;99.90;;;;;;5020722;28;20076;-82
2023/04/17 07:07:25;;;;;;;50.33;33.53;;;8.60;99.90;;;;;;5019134;28;20930;-86
2023/04/17 07:09:54;;;;;;;45.78;31.25;;;8.60;99.90;;;;;;5011835;28;20056;-83
2023/04/17 07:12:26;;;;;;;38.95;29.35;;;8.70;99.90;;;;;;4998667;28;20053;-81
2023/04/17 07:14:53;;;;;;;34.50;27.08;;;8.70;99.90;;;;;;5016097;28;20072;-84
2023/04/17 07:17:18;;;;;;;34.13;27.33;;;8.90;99.90;;;;;;5042854;28;20049;-82
2023/04/17 07:19:44;;;;;;;36.97;28.77;;;8.80;99.90;;;;;;5018906;28;20037;-82
2023/04/17 07:22:10;;;;;;;37.60;25.77;;;8.80;99.90;;;;;;5028212;28;20404;-85
2023/04/17 07:24:38;;;;;;;34.47;28.25;;;8.80;99.90;;;;;;5014727;28;20041;-83
2023/04/17 07:27:06;;;;;;;34.78;28.02;;;8.90;99.90;;;;;;5001209;28;20124;-83
2023/04/17 07:29:34;;;;;;;41.03;28.92;;;9.30;99.90;;;;;;5016614;28;20515;-85
2023/04/17 07:32:18;;;;;;;35.90;27.98;;;9.10;99.90;;;;;;5041658;28;20111;-84
2023/04/17 07:34:44;;;;;;;37.15;28.65;;;9.10;99.90;;;;;;5009686;28;20066;-80
2023/04/17 07:37:10;;;;;;;31.48;25.75;;;9.10;99.90;;;;;;5012574;28;20175;-82
2023/04/17 07:39:35;;;;;;;29.80;25.38;;;9.20;99.90;;;;;;5013741;28;20053;-80
2023/04/17 07:42:05;;;;;;;36.25;29.88;;;9.30;99.90;;;;;;5008823;28;20072;-82
2023/04/17 07:44:31;;;;;;;38.83;29.60;;;9.40;99.90;;;;;;5021901;28;20472;-84
2023/04/17 07:46:56;;;;;;;37.20;29.25;;;9.50;99.90;;;;;;5009919;28;20136;-83
2023/04/17 07:49:22;;;;;;;36.03;29.00;;;9.50;99.90;;;;;;5018946;28;20120;-85
2023/04/17 07:51:48;;;;;;;37.05;30.40;;;9.60;99.90;;;;;;4996222;28;20053;-84
2023/04/17 07:54:14;;;;;;;35.85;29.13;;;9.60;99.90;;;;;;5012841;28;21634;-85
2023/04/17 07:56:39;;;;;;;36.17;29.17;;;9.60;99.90;;;;;;5027436;28;20075;-84
2023/04/17 07:59:05;;;;;;;35.95;29.10;;;9.90;99.90;;;;;;5009419;28;20488;-84
2023/04/17 08:01:30;;;;;;;34.05;27.83;;;10.00;99.90;;;;;;5007181;28;20515;-85
2023/04/17 08:03:56;;;;;;;35.15;29.70;;;10.10;99.90;;;;;;5004864;28;20056;-84
2023/04/17 08:06:22;;;;;;;32.08;28.25;;;10.10;99.90;;;;;;5004136;28;21804;-85
2023/04/17 08:08:48;;;;;;;40.42;30.20;;;10.20;99.90;;;;;;5006361;28;20055;-82
2023/04/17 08:11:14;;;;;;;34.80;29.25;;;10.30;99.90;;;;;;4998284;28;20046;-82
2023/04/17 08:13:39;;;;;;;33.97;29.67;;;10.30;99.90;;;;;;5010024;28;20029;-82
2023/04/17 08:16:06;;;;;;;35.70;31.40;;;10.40;99.90;;;;;;4998360;28;20044;-82
2023/04/17 08:18:32;;;;;;;36.30;32.30;;;10.30;99.90;;;;;;5025125;28;20037;-82
2023/04/17 08:20:58;;;;;;;35.75;31.45;;;10.30;99.90;;;;;;5015936;28;20108;-82
2023/04/17 08:23:23;;;;;;;38.70;31.98;;;10.30;99.90;;;;;;5015983;28;20046;-82
2023/04/17 08:25:49;;;;;;;36.22;31.45;;;10.40;99.90;;;;;;5014447;28;20075;-82
2023/04/17 08:28:15;;;;;;;35.50;31.73;;;10.50;99.90;;;;;;4995554;28;20034;-81
2023/04/17 08:30:41;;;;;;;35.50;30.98;;;10.60;99.90;;;;;;5013686;28;20041;-82
2023/04/17 08:33:06;;;;;;;35.45;31.17;;;10.70;99.90;;;;;;5014060;28;20045;-82
2023/04/17 08:35:32;;;;;;;41.63;32.25;;;10.80;99.90;;;;;;5015283;28;20579;-82
2023/04/17 08:37:58;;;;;;;37.78;30.60;;;10.90;99.90;;;;;;5000539;28;20056;-83
2023/04/17 08:40:25;;;;;;;35.78;31.25;;;11.10;99.90;;;;;;4996929;28;20037;-83
2023/04/17 08:42:52;;;;;;;33.75;30.00;;;11.20;99.90;;;;;;5011840;28;20124;-83
2023/04/17 08:45:19;;;;;;;34.88;30.92;;;11.40;99.90;;;;;;5019185;28;20084;-82
2023/04/17 08:47:45;;;;;;;34.05;29.73;;;11.50;99.90;;;;;;5025064;28;20049;-84
2023/04/17 08:50:16;;;;;;;31.48;28.10;;;11.70;99.90;;;;;;5010672;28;20108;-83
2023/04/17 08:52:44;;;;;;;30.73;27.58;;;11.90;99.90;;;;;;4995461;28;20041;-84
2023/04/17 08:55:28;;;;;;;31.63;28.40;;;11.90;99.90;;;;;;5009774;28;20042;-84
2023/04/17 08:57:58;;;;;;;31.05;27.85;;;12.10;99.90;;;;;;5008680;28;20085;-83
2023/04/17 09:00:26;;;;;;;31.00;27.67;;;12.20;99.90;;;;;;4992610;28;20748;-82
2023/04/17 09:02:54;;;;;;;30.10;27.13;;;12.40;99.90;;;;;;4993153;28;20057;-83
2023/04/17 09:05:22;;;;;;;28.30;25.55;;;12.50;99.90;;;;;;5023648;28;20093;-83
2023/04/17 09:07:49;;;;;;;27.95;25.25;;;12.60;99.90;;;;;;5007699;28;20056;-83
2023/04/17 09:10:15;;;;;;;29.20;26.23;;;13.10;99.90;;;;;;5006905;28;20045;-83
2023/04/17 09:12:58;;;;;;;27.00;24.23;;;12.80;99.90;;;;;;5007209;28;20049;-82
2023/04/17 09:15:24;;;;;;;25.70;23.05;;;12.90;99.90;;;;;;5006953;28;20633;-83
2023/04/17 09:17:50;;;;;;;25.48;23.02;;;13.10;99.90;;;;;;4994540;28;20527;-83
2023/04/17 09:20:16;;;;;;;25.98;23.48;;;12.90;99.90;;;;;;5011491;28;20147;-83
2023/04/17 09:22:42;;;;;;;26.42;23.88;;;13.10;99.90;;;;;;5032206;28;20057;-83
2023/04/17 09:25:21;;;;;;;25.55;23.02;;;13.20;99.90;;;;;;5016114;28;20051;-83
2023/04/17 09:27:47;;;;;;;24.60;22.23;;;13.30;99.90;;;;;;5031355;28;20059;-82
2023/04/17 09:30:13;;;;;;;22.55;20.42;;;13.80;99.90;;;;;;5010328;28;20045;-84
2023/04/17 09:32:39;;;;;;;25.50;23.10;;;13.30;99.90;;;;;;5029941;28;20041;-83
2023/04/17 09:35:05;;;;;;;25.95;23.50;;;13.40;99.90;;;;;;5030921;28;20056;-83
2023/04/17 09:37:48;;;;;;;25.30;23.00;;;13.60;99.90;;;;;;5028674;28;20151;-83
2023/04/17 09:40:15;;;;;;;24.02;20.98;;;13.80;99.90;;;;;;5014559;28;20060;-83
2023/04/17 09:42:57;;;;;;;23.80;21.65;;;14.20;99.90;;;;;;5048796;28;20140;-84
2023/04/17 09:45:28;;;;;;;21.70;19.60;;;14.30;99.90;;;;;;5013001;28;20213;-83
2023/04/17 09:47:57;;;;;;;22.00;18.60;;;14.50;99.90;;;;;;5025920;28;20119;-83
2023/04/17 09:50:25;;;;;;;19.98;18.02;;;14.70;99.90;;;;;;5028257;28;20040;-83
2023/04/17 09:52:57;;;;;;;21.15;18.55;;;14.70;99.90;;;;;;5034175;28;20072;-83
2023/04/17 09:55:31;;;;;;;20.30;18.40;;;14.50;99.90;;;;;;5016519;28;20033;-83
2023/04/17 09:58:00;;;;;;;19.15;17.45;;;14.70;99.90;;;;;;5039286;28;20060;-83
2023/04/17 10:00:26;;;;;;;19.23;17.35;;;14.90;99.90;;;;;;5032076;28;20053;-83
2023/04/17 10:02:53;;;;;;;19.27;17.15;;;15.00;99.90;;;;;;5032321;28;20051;-83
2023/04/17 10:05:20;;;;;;;19.20;17.38;;;15.20;99.90;;;;;;5047796;28;20139;-83
2023/04/17 10:07:46;;;;;;;19.38;17.67;;;15.10;99.90;;;;;;5033816;28;20036;-84
2023/04/17 10:10:31;;;;;;;19.35;17.30;;;15.30;99.90;;;;;;5034878;28;20045;-84
2023/04/17 10:13:00;;;;;;;18.90;15.38;;;15.20;99.90;;;;;;5064668;28;20069;-83
2023/04/17 10:15:26;;;;;;;16.85;15.25;;;15.50;99.90;;;;;;5049839;28;20097;-83
2023/04/17 10:21:24;;;;;;;15.48;13.77;;;15.70;99.90;;;;;;5031249;28;20064;-83
2023/04/17 10:23:49;;;;;;;15.90;14.27;;;14.90;99.90;;;;;;5014953;28;20045;-83
2023/04/17 10:26:24;;;;;;;16.67;14.13;;;14.60;99.90;;;;;;5016272;28;20106;-82
2023/04/17 10:28:52;;;;;;;15.77;13.05;;;14.60;99.90;;;;;;5029295;28;20842;-82
2023/04/17 10:31:22;;;;;;;15.65;13.93;;;14.60;99.90;;;;;;5036412;28;20079;-82
2023/04/17 10:33:53;;;;;;;17.25;13.88;;;14.40;99.90;;;;;;5030411;28;20048;-82
2023/04/17 10:36:37;;;;;;;17.17;13.10;;;14.60;99.90;;;;;;5028964;28;20053;-82
2023/04/17 10:39:13;;;;;;;14.40;13.02;;;14.70;99.90;;;;;;5032902;28;20055;-83
2023/04/17 10:42:00;;;;;;;15.68;13.15;;;14.80;99.90;;;;;;5063185;28;20071;-83
2023/04/17 10:44:26;;;;;;;15.05;12.10;;;15.00;99.90;;;;;;5039264;28;20047;-83
2023/04/17 10:46:52;;;;;;;14.02;11.75;;;15.20;99.90;;;;;;5033991;28;20044;-82
2023/04/17 10:49:20;;;;;;;14.90;12.20;;;15.50;99.90;;;;;;5034070;28;20057;-83
2023/04/17 10:51:46;;;;;;;15.00;11.57;;;15.80;99.90;;;;;;5063494;28;20052;-84
2023/04/17 10:54:14;;;;;;;13.32;10.68;;;15.60;99.90;;;;;;5033657;28;20699;-82
2023/04/17 10:56:47;;;;;;;12.38;10.30;;;15.80;99.90;;;;;;5034993;28;20128;-84
2023/04/17 10:59:17;;;;;;;11.55;10.45;;;16.20;99.90;;;;;;5034421;28;20052;-83
2023/04/17 11:01:49;;;;;;;11.55;10.20;;;16.00;99.90;;;;;;5032077;28;20047;-83
2023/04/17 11:04:28;;;;;;;10.73;9.63;;;15.90;99.90;;;;;;5033640;28;20033;-83
2023/04/17 11:06:54;;;;;;;10.57;8.80;;;15.90;99.90;;;;;;5024078;28;21040;-83
2023/04/17 11:09:26;;;;;;;9.65;8.65;;;16.00;99.90;;;;;;5035677;28;20102;-83
2023/04/17 11:11:53;;;;;;;11.70;9.05;;;15.80;99.90;;;;;;5017803;28;20122;-84
2023/04/17 11:14:21;;;;;;;10.55;9.05;;;16.00;99.90;;;;;;5052007;28;20086;-84
2023/04/17 11:16:50;;;;;;;11.05;9.93;;;16.10;99.90;;;;;;5025271;28;20040;-83
2023/04/17 11:19:25;;;;;;;8.70;7.90;;;16.10;99.90;;;;;;5020677;28;20123;-83
2023/04/17 11:21:53;;;;;;;11.38;8.07;;;15.90;99.90;;;;;;5043911;28;20072;-83
2023/04/17 11:24:23;;;;;;;10.80;8.52;;;15.90;99.90;;;;;;5071074;28;20049;-83
2023/04/17 11:26:49;;;;;;;10.98;8.95;;;16.10;99.90;;;;;;5016950;28;20038;-83
2023/04/17 11:29:15;;;;;;;9.60;8.63;;;16.30;99.90;;;;;;5015559;28;20045;-80
2023/04/17 11:31:42;;;;;;;9.65;8.48;;;16.00;99.90;;;;;;5033746;28;20059;-83
2023/04/17 11:34:08;;;;;;;10.95;9.57;;;15.70;99.90;;;;;;5051515;28;20072;-83
2023/04/17 11:36:34;;;;;;;10.38;9.38;;;15.20;99.90;;;;;;5016309;28;20045;-84
2023/04/17 11:39:00;;;;;;;9.93;9.00;;;14.80;99.90;;;;;;5029306;28;20408;-82
2023/04/17 11:41:38;;;;;;;11.68;8.57;;;15.10;99.90;;;;;;5010191;28;20866;-82
2023/04/17 11:44:08;;;;;;;11.80;8.00;;;15.40;99.90;;;;;;5005274;28;20111;-82
2023/04/17 11:46:34;;;;;;;11.40;9.45;;;15.40;99.90;;;;;;5024905;28;20045;-83
2023/04/17 11:49:03;;;;;;;11.15;8.77;;;15.40;99.90;;;;;;5023839;28;20041;-85
2023/04/17 11:51:30;;;;;;;12.65;8.90;;;15.10;99.90;;;;;;5024516;28;20045;-82
2023/04/17 11:53:56;;;;;;;10.93;8.43;;;15.10;99.90;;;;;;5008107;28;20109;-83
2023/04/17 11:56:27;;;;;;;8.77;7.57;;;15.40;99.90;;;;;;5013898;28;20725;-82
2023/04/17 11:58:55;;;;;;;11.15;7.80;;;15.80;99.90;;;;;;5053010;28;20135;-83
2023/04/17 12:01:26;;;;;;;8.25;7.30;;;15.90;99.90;;;;;;5022537;28;20153;-83
2023/04/17 12:03:56;;;;;;;9.25;6.97;;;15.80;99.90;;;;;;5024495;28;21467;-82
2023/04/17 12:06:23;;;;;;;8.55;7.38;;;15.60;99.90;;;;;;5058532;28;20066;-83
2023/04/17 12:08:52;;;;;;;9.65;7.35;;;15.90;99.90;;;;;;5015187;28;20447;-82
2023/04/17 12:11:29;;;;;;;10.27;7.47;;;16.30;99.90;;;;;;5031468;28;20052;-83
2023/04/17 12:13:55;;;;;;;10.65;7.22;;;16.60;99.90;;;;;;5032430;28;20054;-82
2023/04/17 12:16:23;;;;;;;10.90;7.22;;;16.40;99.90;;;;;;5031818;28;20491;-82
2023/04/17 12:18:49;;;;;;;10.68;8.40;;;16.30;99.90;;;;;;5028864;28;20049;-81
2023/04/17 12:21:15;;;;;;;10.18;8.80;;;16.40;99.90;;;;;;5024286;28;20044;-82
2023/04/17 12:23:41;;;;;;;8.90;8.10;;;16.60;99.90;;;;;;5025881;28;20044;-82
2023/04/17 12:26:07;;;;;;;10.50;8.82;;;16.70;99.90;;;;;;5040321;28;20041;-82
2023/04/17 12:28:33;;;;;;;10.18;8.27;;;16.60;99.90;;;;;;5028509;28;20048;-82
2023/04/17 12:30:58;;;;;;;10.20;8.82;;;16.80;99.90;;;;;;5029515;28;20041;-82
2023/04/17 12:33:25;;;;;;;12.13;9.00;;;17.20;99.90;;;;;;5030342;28;20384;-82
2023/04/17 12:35:50;;;;;;;9.65;7.78;;;16.30;99.90;;;;;;5027096;28;20052;-83
2023/04/17 12:38:16;;;;;;;11.15;8.07;;;16.30;99.90;;;;;;5025152;28;20086;-83
2023/04/17 12:40:44;;;;;;;10.82;9.00;;;16.20;99.90;;;;;;5036628;28;20104;-85